createdAt,value
2023-01-10T00:01:44.970Z,100959.84
2023-01-10T00:04:12.014Z,100963.28
2023-01-10T00:06:39.186Z,100969.97
2023-01-10T00:09:06.428Z,100960.84
2023-01-10T00:11:52.075Z,100955.81
2023-01-10T00:14:19.288Z,100949.97
2023-01-10T00:16:46.605Z,100951.97
2023-01-10T00:19:13.609Z,100949.94
2023-01-10T00:21:40.710Z,100954.56
2023-01-10T00:24:17.988Z,100956.00
2023-01-10T00:26:52.303Z,100945.38
2023-01-10T00:29:25.837Z,100973.97
2023-01-10T00:31:52.945Z,100951.84
2023-01-10T00:34:20.331Z,100954.38
2023-01-10T00:36:48.131Z,100963.66
2023-01-10T00:39:20.726Z,100958.22
2023-01-10T00:42:06.160Z,100974.34
2023-01-10T00:44:33.243Z,100961.13
2023-01-10T00:47:00.247Z,100977.56
2023-01-10T00:49:27.413Z,100962.13
2023-01-10T00:51:58.319Z,100955.94
2023-01-10T00:54:25.931Z,100965.09
2023-01-10T00:56:52.936Z,100957.81
2023-01-10T00:59:19.900Z,100963.59
2023-01-10T01:01:47.241Z,100958.94
2023-01-10T01:04:14.812Z,100966.59
2023-01-10T01:06:44.014Z,100959.22
2023-01-10T01:09:10.981Z,100962.75
2023-01-10T01:11:38.089Z,100960.34
2023-01-10T01:14:05.321Z,100951.41
2023-01-10T01:16:32.476Z,100947.66
2023-01-10T01:18:59.683Z,100949.66
2023-01-10T01:21:28.464Z,100954.03
2023-01-10T01:23:59.229Z,100953.19
2023-01-10T01:26:26.902Z,100964.97
2023-01-10T01:28:53.860Z,100964.44
2023-01-10T01:31:21.024Z,100952.75
2023-01-10T01:33:48.244Z,100957.50
2023-01-10T01:36:15.340Z,100958.09
2023-01-10T01:38:42.503Z,100961.09
2023-01-10T01:41:28.718Z,100948.00
2023-01-10T01:44:08.234Z,100942.25
2023-01-10T01:46:39.327Z,100922.97
2023-01-10T01:49:13.718Z,100913.22
2023-01-10T01:51:40.888Z,100912.09
2023-01-10T01:54:12.265Z,100919.72
2023-01-10T01:56:57.124Z,100921.66
2023-01-10T01:59:50.012Z,100906.97
2023-01-10T02:02:25.336Z,100898.06
2023-01-10T02:04:57.295Z,100891.38
2023-01-10T02:07:26.388Z,100887.34
2023-01-10T02:10:03.876Z,100882.19
2023-01-10T02:12:32.774Z,100894.47
2023-01-10T02:15:00.610Z,100887.50
2023-01-10T02:17:27.737Z,100898.44
2023-01-10T02:20:01.703Z,100879.78
2023-01-10T02:22:50.556Z,100868.91
2023-01-10T02:25:48.100Z,100866.47
2023-01-10T02:28:33.681Z,100866.47
2023-01-10T02:31:24.115Z,100862.88
2023-01-10T02:34:00.043Z,100856.03
2023-01-10T02:37:00.482Z,100865.91
2023-01-10T02:39:35.409Z,100863.53
2023-01-10T02:42:31.745Z,100860.00
2023-01-10T02:45:07.315Z,100861.31
2023-01-10T02:47:39.938Z,100856.03
2023-01-10T02:50:37.402Z,100855.34
2023-01-10T02:53:13.493Z,100855.09
2023-01-10T02:56:04.108Z,100858.47
2023-01-10T02:59:00.157Z,100849.91
2023-01-10T03:01:45.695Z,100854.69
2023-01-10T03:04:30.733Z,100865.25
2023-01-10T03:07:25.175Z,100851.16
2023-01-10T03:10:02.769Z,100860.63
2023-01-10T03:12:43.565Z,100857.00
2023-01-10T03:15:14.072Z,100855.09
2023-01-10T03:17:44.767Z,100841.88
2023-01-10T03:20:12.675Z,100839.75
2023-01-10T03:22:41.952Z,100861.84
2023-01-10T03:25:13.531Z,100853.94
2023-01-10T03:27:55.975Z,100854.75
2023-01-10T03:31:05.316Z,100853.75
2023-01-10T03:33:34.471Z,100859.78
2023-01-10T03:36:23.246Z,100862.28
2023-01-10T03:39:11.714Z,100884.13
2023-01-10T03:41:58.920Z,100885.56
2023-01-10T03:44:45.430Z,100886.66
2023-01-10T03:47:45.693Z,100883.50
2023-01-10T03:50:17.986Z,100883.34
2023-01-10T03:52:45.811Z,100882.13
2023-01-10T03:55:18.404Z,100886.53
2023-01-10T03:57:49.074Z,100889.03
2023-01-10T04:00:17.067Z,100890.66
2023-01-10T04:02:44.652Z,100898.16
2023-01-10T04:05:12.364Z,100890.66
2023-01-10T04:07:39.538Z,100895.50
2023-01-10T04:10:09.320Z,100903.06
2023-01-10T04:12:36.588Z,100898.13
2023-01-10T04:15:04.098Z,100888.44
2023-01-10T04:17:31.079Z,100888.53
2023-01-10T04:19:58.716Z,100908.22
2023-01-10T04:22:25.689Z,100908.00
2023-01-10T04:24:54.018Z,100905.59
2023-01-10T04:27:21.375Z,100915.44
2023-01-10T04:29:48.522Z,100909.19
2023-01-10T04:32:15.557Z,100910.06
2023-01-10T04:34:42.835Z,100904.63
2023-01-10T04:37:09.798Z,100905.75
2023-01-10T04:39:36.860Z,100898.75
2023-01-10T04:42:04.030Z,100888.94
2023-01-10T04:44:31.035Z,100885.28
2023-01-10T04:46:58.103Z,100885.72
2023-01-10T04:49:25.149Z,100895.56
2023-01-10T04:51:52.178Z,100899.19
2023-01-10T04:54:23.248Z,100908.53
2023-01-10T04:56:50.489Z,100908.00
2023-01-10T04:59:17.651Z,100910.28
2023-01-10T05:01:44.876Z,100914.19
2023-01-10T05:04:12.349Z,100925.41
2023-01-10T05:06:40.480Z,100927.13
2023-01-10T05:09:08.989Z,100924.97
2023-01-10T05:11:35.957Z,100917.72
2023-01-10T05:14:03.327Z,100915.25
2023-01-10T05:16:30.542Z,100935.41
2023-01-10T05:18:57.688Z,100924.34
2023-01-10T05:21:24.874Z,100928.25
2023-01-10T05:23:52.080Z,100928.53
2023-01-10T05:26:22.121Z,100921.78
2023-01-10T05:28:49.507Z,100920.38
2023-01-10T05:31:18.941Z,100920.69
2023-01-10T05:33:47.816Z,100926.34
2023-01-10T05:36:15.358Z,100926.84
2023-01-10T05:38:42.636Z,100927.66
2023-01-10T05:41:09.931Z,100931.22
2023-01-10T05:43:37.602Z,100926.84
2023-01-10T05:46:04.779Z,100932.81
2023-01-10T05:48:31.890Z,100940.41
2023-01-10T05:50:59.072Z,100934.97
2023-01-10T05:53:26.633Z,100948.31
2023-01-10T05:55:58.118Z,100951.31
2023-01-10T05:58:25.950Z,100946.63
2023-01-10T06:00:55.248Z,100962.66
2023-01-10T06:03:23.149Z,100965.31
2023-01-10T06:05:50.265Z,100974.50
2023-01-10T06:08:17.601Z,100975.03
2023-01-10T06:10:44.768Z,100975.53
2023-01-10T06:13:12.571Z,101021.13
2023-01-10T06:15:40.289Z,101015.34
2023-01-10T06:18:07.668Z,100979.03
2023-01-10T06:20:35.603Z,100941.34
2023-01-10T06:23:04.866Z,100926.75
2023-01-10T06:25:34.062Z,100924.22
2023-01-10T06:28:01.500Z,100894.44
2023-01-10T06:30:28.784Z,100871.09
2023-01-10T06:33:02.211Z,100845.63
2023-01-10T06:35:29.518Z,100820.56
2023-01-10T06:37:57.132Z,100813.97
2023-01-10T06:40:25.067Z,100774.22
2023-01-10T06:42:52.386Z,100769.56
2023-01-10T06:45:19.915Z,100757.31
2023-01-10T06:47:47.225Z,100758.94
2023-01-10T06:50:14.502Z,100776.53
2023-01-10T06:52:42.241Z,100797.78
2023-01-10T06:55:10.799Z,100835.47
2023-01-10T06:57:38.653Z,100838.13
2023-01-10T07:00:07.944Z,100862.47
2023-01-10T07:02:35.270Z,100864.41
2023-01-10T07:05:02.379Z,100859.09
2023-01-10T07:07:29.368Z,100892.69
2023-01-10T07:09:56.499Z,100898.25
2023-01-10T07:12:23.401Z,100905.22
2023-01-10T07:14:50.461Z,100903.03
2023-01-10T07:17:17.442Z,100888.28
2023-01-10T07:19:44.568Z,100890.88
2023-01-10T07:22:12.483Z,100886.88
2023-01-10T07:24:39.580Z,100867.94
2023-01-10T07:27:06.594Z,100857.47
2023-01-10T07:29:33.699Z,100855.66
2023-01-10T07:32:00.623Z,100845.97
2023-01-10T07:34:27.610Z,100850.09
2023-01-10T07:36:54.783Z,100848.53
2023-01-10T07:39:21.708Z,100836.38
2023-01-10T07:41:49.759Z,100814.22
2023-01-10T07:44:17.208Z,100771.25
2023-01-10T07:46:44.360Z,100764.88
2023-01-10T07:49:11.546Z,100764.47
2023-01-10T07:51:38.464Z,100765.91
2023-01-10T07:54:05.538Z,100823.63
2023-01-10T07:56:32.872Z,100908.97
2023-01-10T07:59:01.515Z,100958.13
2023-01-10T08:01:29.779Z,100984.88
2023-01-10T08:03:58.914Z,101022.31
2023-01-10T08:06:26.161Z,101051.00
2023-01-10T08:08:53.235Z,101052.06
2023-01-10T08:11:20.220Z,101063.88
2023-01-10T08:13:48.275Z,101070.03
2023-01-10T08:16:15.982Z,101066.34
2023-01-10T08:18:43.515Z,101054.25
2023-01-10T08:21:10.750Z,101048.91
2023-01-10T08:23:38.093Z,101055.75
2023-01-10T08:26:06.141Z,101046.03
2023-01-10T08:28:33.433Z,101045.47
2023-01-10T08:31:09.391Z,101028.09
2023-01-10T08:33:42.434Z,101081.22
2023-01-10T08:36:19.951Z,101072.56
2023-01-10T08:38:48.024Z,101077.47
2023-01-10T08:41:15.072Z,101083.16
2023-01-10T08:43:42.152Z,101061.75
2023-01-10T08:46:09.466Z,101051.44
2023-01-10T08:48:36.492Z,101051.66
2023-01-10T08:51:09.363Z,101028.56
2023-01-10T08:53:38.853Z,101037.72
2023-01-10T08:56:06.310Z,101040.34
2023-01-10T08:58:33.546Z,101065.66
2023-01-10T09:01:03.935Z,101088.88
2023-01-10T09:03:31.422Z,101113.31
2023-01-10T09:06:02.266Z,101111.25
2023-01-10T09:08:29.587Z,101126.56
2023-01-10T09:11:00.064Z,101112.53
2023-01-10T09:13:29.106Z,101122.38
2023-01-10T09:15:57.210Z,101135.44
2023-01-10T09:18:25.222Z,101136.28
2023-01-10T09:20:52.805Z,101117.06
2023-01-10T09:23:22.252Z,101112.47
2023-01-10T09:25:54.599Z,101139.28
2023-01-10T09:28:24.580Z,101149.31
2023-01-10T09:30:51.746Z,101151.47
2023-01-10T09:33:19.207Z,101123.81
2023-01-10T09:35:46.362Z,101104.00
2023-01-10T09:38:16.570Z,101100.72
2023-01-10T09:41:15.575Z,101114.00
2023-01-10T09:44:01.545Z,101107.22
2023-01-10T09:46:48.304Z,101115.91
2023-01-10T09:49:36.509Z,101107.25
2023-01-10T09:52:09.038Z,101086.09
2023-01-10T09:54:41.808Z,101069.84
2023-01-10T09:57:17.328Z,101038.91
2023-01-10T09:59:45.836Z,101025.34
2023-01-10T10:02:36.900Z,101012.28
2023-01-10T10:05:16.887Z,100992.72
2023-01-10T10:07:44.747Z,100985.09
2023-01-10T10:10:18.687Z,100961.47
2023-01-10T10:13:00.894Z,100941.06
2023-01-10T10:15:54.404Z,100916.72
2023-01-10T10:18:27.153Z,100930.22
2023-01-10T10:21:16.539Z,100911.00
2023-01-10T10:23:55.961Z,100900.94
2023-01-10T10:26:34.117Z,100909.16
2023-01-10T10:29:25.511Z,100895.06
2023-01-10T10:31:52.638Z,100900.59
2023-01-10T10:34:33.269Z,100913.47
2023-01-10T10:37:20.821Z,100921.75
2023-01-10T10:39:54.536Z,100940.59
2023-01-10T10:42:22.064Z,100976.97
2023-01-10T10:45:00.863Z,101031.00
2023-01-10T10:47:33.306Z,101055.22
2023-01-10T10:50:15.327Z,101100.28
2023-01-10T10:52:45.122Z,101112.03
2023-01-10T10:55:19.001Z,101102.53
2023-01-10T10:57:59.508Z,101063.44
2023-01-10T11:00:29.088Z,101049.53
2023-01-10T11:03:25.990Z,101055.78
2023-01-10T11:05:53.832Z,101052.69
2023-01-10T11:08:23.051Z,101045.72
2023-01-10T11:10:54.378Z,101013.06
2023-01-10T11:13:33.437Z,101001.22
2023-01-10T11:16:03.280Z,100985.66
2023-01-10T11:18:31.893Z,101001.63
2023-01-10T11:20:58.861Z,101004.28
2023-01-10T11:23:38.164Z,101015.38
2023-01-10T11:26:08.695Z,101043.50
2023-01-10T11:28:37.141Z,101042.16
2023-01-10T11:31:04.476Z,101031.72
2023-01-10T11:33:40.065Z,101025.69
2023-01-10T11:36:10.469Z,101004.09
2023-01-10T11:38:37.779Z,101011.25
2023-01-10T11:41:07.387Z,100997.47
2023-01-10T11:43:40.354Z,100995.72
2023-01-10T11:46:21.711Z,100979.75
2023-01-10T11:49:12.927Z,100988.50
2023-01-10T11:51:45.806Z,100983.41
2023-01-10T11:54:28.008Z,100953.69
2023-01-10T11:57:07.343Z,100962.59
2023-01-10T11:59:34.780Z,100952.19
2023-01-10T12:02:17.996Z,100944.69
2023-01-10T12:04:47.841Z,100924.66
2023-01-10T12:07:15.016Z,100902.63
2023-01-10T12:09:59.062Z,100894.25
2023-01-10T12:12:27.246Z,100916.28
2023-01-10T12:15:30.811Z,100912.16
2023-01-10T12:18:03.254Z,100908.13
2023-01-10T12:20:33.175Z,100889.13
2023-01-10T12:23:06.110Z,100901.06
2023-01-10T12:25:37.649Z,100901.38
2023-01-10T12:28:13.929Z,100895.91
2023-01-10T12:30:50.334Z,100889.63
2023-01-10T12:33:23.133Z,100899.13
2023-01-10T12:36:02.566Z,100901.69
2023-01-10T12:39:06.620Z,100895.41
2023-01-10T12:42:09.467Z,100890.56
2023-01-10T12:44:47.817Z,100915.38
2023-01-10T12:47:31.136Z,100897.50
2023-01-10T12:50:05.229Z,100921.16
2023-01-10T12:52:45.618Z,100907.31
2023-01-10T12:55:18.676Z,100883.19
2023-01-10T12:57:54.012Z,100866.47
2023-01-10T13:00:24.984Z,100861.16
2023-01-10T13:02:56.269Z,100895.38
2023-01-10T13:05:26.827Z,100884.31
2023-01-10T13:08:01.206Z,100855.72
2023-01-10T13:10:29.485Z,100889.72
2023-01-10T13:13:09.798Z,100887.75
2023-01-10T13:15:57.315Z,100879.66
2023-01-10T13:18:28.360Z,100889.13
2023-01-10T13:21:13.652Z,100900.13
2023-01-10T13:23:49.420Z,100898.94
2023-01-10T13:26:16.685Z,100905.72
2023-01-10T13:28:58.625Z,100906.38
2023-01-10T13:31:33.943Z,100915.16
2023-01-10T13:34:16.426Z,100885.31
2023-01-10T13:36:54.014Z,100876.13
2023-01-10T13:39:34.892Z,100856.47
2023-01-10T13:42:20.366Z,100864.09
2023-01-10T13:45:02.562Z,100841.72
2023-01-10T13:47:43.463Z,100827.72
2023-01-10T13:50:22.638Z,100874.00
2023-01-10T13:52:53.883Z,100883.16
2023-01-10T13:55:42.864Z,100894.78
2023-01-10T13:58:09.898Z,100903.00
2023-01-10T14:00:55.355Z,100909.75
2023-01-10T14:03:48.414Z,100933.56
2023-01-10T14:06:20.310Z,100939.19
2023-01-10T14:09:13.631Z,100979.56
2023-01-10T14:11:43.434Z,100976.00
2023-01-10T14:14:28.304Z,100993.47
2023-01-10T14:17:21.799Z,100993.75
2023-01-10T14:19:59.295Z,100983.97
2023-01-10T14:22:31.382Z,100973.25
2023-01-10T14:25:01.877Z,100983.69
2023-01-10T14:27:56.664Z,100969.84
2023-01-10T14:30:36.040Z,100977.53
2023-01-10T14:33:16.481Z,100966.59
2023-01-10T14:35:47.240Z,100974.59
2023-01-10T14:38:26.340Z,100972.81
2023-01-10T14:41:02.156Z,100984.34
2023-01-10T14:43:37.708Z,100982.28
2023-01-10T14:46:26.183Z,100981.63
2023-01-10T14:48:55.272Z,100978.38
2023-01-10T14:51:29.509Z,100989.75
2023-01-10T14:54:11.652Z,100956.59
2023-01-10T14:56:40.139Z,100950.56
2023-01-10T14:59:22.185Z,100948.09
2023-01-10T15:01:51.256Z,100913.47
2023-01-10T15:04:24.330Z,100895.94
2023-01-10T15:07:00.299Z,100883.00
2023-01-10T15:09:28.693Z,100853.22
2023-01-10T15:11:59.080Z,100846.44
2023-01-10T15:14:29.742Z,100868.59
2023-01-10T15:17:06.506Z,100882.25
2023-01-10T15:19:36.602Z,100882.25
2023-01-10T15:22:04.879Z,100874.38
2023-01-10T15:24:36.088Z,100891.44
2023-01-10T15:27:07.861Z,100891.31
2023-01-10T15:29:37.121Z,100949.50
2023-01-10T15:32:17.215Z,100915.81
2023-01-10T15:34:50.478Z,100898.38
2023-01-10T15:37:22.775Z,100882.19
2023-01-10T15:39:50.414Z,100877.44
2023-01-10T15:42:20.337Z,100918.97
2023-01-10T15:44:52.969Z,100933.97
2023-01-10T15:47:37.178Z,100896.75
2023-01-10T15:50:39.816Z,100938.63
2023-01-10T15:53:10.825Z,100935.91
2023-01-10T15:55:38.230Z,100974.59
2023-01-10T15:58:14.974Z,100989.97
2023-01-10T16:00:51.071Z,101004.09
2023-01-10T16:03:27.439Z,101016.13
2023-01-10T16:05:59.000Z,101025.41
2023-01-10T16:08:32.702Z,101024.69
2023-01-10T16:11:02.214Z,101026.72
2023-01-10T16:13:31.765Z,101026.81
2023-01-10T16:16:00.820Z,101039.75
2023-01-10T16:18:28.375Z,101044.41
2023-01-10T16:20:59.713Z,101076.25
2023-01-10T16:23:31.984Z,101099.97
2023-01-10T16:26:02.178Z,101093.13
2023-01-10T16:28:33.174Z,101107.06
2023-01-10T16:31:00.265Z,101133.00
2023-01-10T16:33:28.182Z,101150.75
2023-01-10T16:35:58.021Z,101139.31
2023-01-10T16:38:27.800Z,101123.34
2023-01-10T16:40:59.032Z,101124.00
2023-01-10T16:43:27.256Z,101144.91
2023-01-10T16:46:00.517Z,101164.91
2023-01-10T16:48:30.109Z,101169.00
2023-01-10T16:51:13.750Z,101172.34
2023-01-10T16:53:40.807Z,101174.03
2023-01-10T16:56:14.422Z,101197.06
2023-01-10T16:58:41.589Z,101235.94
2023-01-10T17:01:19.513Z,101235.63
2023-01-10T17:03:47.693Z,101243.56
2023-01-10T17:06:15.991Z,101223.63
2023-01-10T17:08:44.463Z,101200.94
2023-01-10T17:11:35.592Z,101209.13
2023-01-10T17:14:04.488Z,101223.25
2023-01-10T17:16:32.170Z,101212.69
2023-01-10T17:18:59.451Z,101199.66
2023-01-10T17:21:26.922Z,101201.28
2023-01-10T17:23:54.001Z,101220.00
2023-01-10T17:26:21.064Z,101203.44
2023-01-10T17:28:49.849Z,101184.72
2023-01-10T17:31:19.936Z,101187.41
2023-01-10T17:33:49.192Z,101202.63
2023-01-10T17:36:18.986Z,101183.63
2023-01-10T17:38:46.504Z,101189.06
2023-01-10T17:41:13.664Z,101207.50
2023-01-10T17:43:40.790Z,101228.69
2023-01-10T17:46:08.269Z,101237.38
2023-01-10T17:48:36.193Z,101258.00
2023-01-10T17:51:04.875Z,101244.72
2023-01-10T17:53:33.511Z,101215.69
2023-01-10T17:56:01.416Z,101223.53
2023-01-10T17:58:31.554Z,101247.94
2023-01-10T18:00:58.700Z,101239.22
2023-01-10T18:03:26.018Z,101238.38
2023-01-10T18:05:55.293Z,101232.38
2023-01-10T18:08:23.398Z,101226.13
2023-01-10T18:10:50.920Z,101200.34
2023-01-10T18:13:20.565Z,101214.16
2023-01-10T18:15:49.504Z,101239.41
2023-01-10T18:18:17.078Z,101238.59
2023-01-10T18:20:45.102Z,101239.41
2023-01-10T18:23:33.096Z,101239.16
2023-01-10T18:26:09.265Z,101250.84
2023-01-10T18:28:42.912Z,101257.38
2023-01-10T18:31:13.468Z,101278.56
2023-01-10T18:33:41.089Z,101277.19
2023-01-10T18:36:14.445Z,101285.84
2023-01-10T18:38:42.321Z,101267.66
2023-01-10T18:41:09.777Z,101253.50
2023-01-10T18:43:36.995Z,101245.38
2023-01-10T18:46:07.840Z,101256.25
2023-01-10T18:48:35.112Z,101261.97
2023-01-10T18:51:04.540Z,101260.38
2023-01-10T18:53:32.163Z,101250.09
2023-01-10T18:56:01.605Z,101235.75
2023-01-10T18:58:31.575Z,101225.97
2023-01-10T19:00:58.839Z,101240.63
2023-01-10T19:03:25.854Z,101256.41
2023-01-10T19:05:53.061Z,101259.09
2023-01-10T19:08:20.040Z,101246.63
2023-01-10T19:11:11.761Z,101238.50
2023-01-10T19:13:36.131Z,101239.31
2023-01-10T19:16:17.516Z,101253.91
2023-01-10T19:18:48.805Z,101263.69
2023-01-10T19:21:16.040Z,101260.69
2023-01-10T19:23:49.027Z,101249.53
2023-01-10T19:26:16.627Z,101249.53
2023-01-10T19:28:45.086Z,101242.75
2023-01-10T19:31:23.027Z,101265.00
2023-01-10T19:33:51.871Z,101268.00
2023-01-10T19:36:21.966Z,101272.06
2023-01-10T19:38:49.176Z,101273.19
2023-01-10T19:41:16.221Z,101282.44
2023-01-10T19:43:44.527Z,101285.69
2023-01-10T19:46:13.064Z,101295.72
2023-01-10T19:48:40.327Z,101285.97
2023-01-10T19:51:12.658Z,101284.88
2023-01-10T19:53:44.395Z,101310.63
2023-01-10T19:56:11.974Z,101314.97
2023-01-10T19:58:39.626Z,101308.47
2023-01-10T20:01:15.899Z,101293.84
2023-01-10T20:03:46.771Z,101294.38
2023-01-10T20:06:17.423Z,101310.63
2023-01-10T20:08:46.657Z,101302.78
2023-01-10T20:11:14.960Z,101285.16
2023-01-10T20:13:48.440Z,101269.41
2023-01-10T20:16:17.077Z,101261.25
2023-01-10T20:18:44.731Z,101261.28
2023-01-10T20:21:15.394Z,101268.88
2023-01-10T20:23:43.367Z,101293.00
2023-01-10T20:26:16.513Z,101302.78
2023-01-10T20:28:45.016Z,101305.75
2023-01-10T20:31:18.308Z,101303.31
2023-01-10T20:33:45.281Z,101305.75
2023-01-10T20:36:15.349Z,101310.66
2023-01-10T20:38:43.188Z,101309.53
2023-01-10T20:41:16.019Z,101308.66
2023-01-10T20:43:44.270Z,101303.25
2023-01-10T20:46:24.907Z,101301.38
2023-01-10T20:48:53.412Z,101308.41
2023-01-10T20:51:23.861Z,101311.13
2023-01-10T20:53:51.689Z,101302.44
2023-01-10T20:56:22.289Z,101298.38
2023-01-10T20:58:51.267Z,101304.59
2023-01-10T21:01:33.147Z,101326.06
2023-01-10T21:04:03.337Z,101301.63
2023-01-10T21:06:30.735Z,101301.34
2023-01-10T21:08:58.306Z,101309.47
2023-01-10T21:11:25.856Z,101318.97
2023-01-10T21:13:53.640Z,101316.03
2023-01-10T21:16:22.770Z,101321.47
2023-01-10T21:18:52.132Z,101322.56
2023-01-10T21:21:22.951Z,101307.66
2023-01-10T21:23:55.377Z,101300.06
2023-01-10T21:26:23.446Z,101281.63
2023-01-10T21:28:50.911Z,101291.41
2023-01-10T21:31:22.225Z,101299.53
2023-01-10T21:33:50.293Z,101305.75
2023-01-10T21:36:18.284Z,101304.94
2023-01-10T21:38:45.668Z,101305.75
2023-01-10T21:41:36.409Z,101326.91
2023-01-10T21:44:05.305Z,101328.28
2023-01-10T21:46:32.613Z,101339.38
2023-01-10T21:49:01.881Z,101341.56
2023-01-10T21:51:29.144Z,101353.22
2023-01-10T21:53:56.280Z,101345.06
2023-01-10T21:56:23.759Z,101331.00
2023-01-10T21:58:51.066Z,101341.28
2023-01-10T22:01:18.269Z,101349.69
2023-01-10T22:03:46.744Z,101350.22
2023-01-10T22:06:14.547Z,101352.94
2023-01-10T22:08:42.179Z,101346.72
2023-01-10T22:11:11.009Z,101362.72
2023-01-10T22:13:38.976Z,101357.03
2023-01-10T22:16:07.254Z,101369.50
2023-01-10T22:18:35.018Z,101370.84
2023-01-10T22:21:02.444Z,101356.75
2023-01-10T22:23:31.025Z,101365.69
2023-01-10T22:26:13.633Z,101360.00
2023-01-10T22:28:40.826Z,101358.09
2023-01-10T22:31:08.166Z,101362.72
2023-01-10T22:33:37.648Z,101354.56
2023-01-10T22:36:13.085Z,101338.56
2023-01-10T22:38:41.832Z,101333.94
2023-01-10T22:41:13.929Z,101348.59
2023-01-10T22:43:41.107Z,101361.88
2023-01-10T22:46:08.840Z,101363.50
2023-01-10T22:48:37.300Z,101350.53
2023-01-10T22:51:05.786Z,101346.97
2023-01-10T22:53:33.568Z,101355.13
2023-01-10T22:56:01.718Z,101349.69
2023-01-10T22:58:28.786Z,101348.63
2023-01-10T23:00:56.138Z,101342.63
2023-01-10T23:03:24.031Z,101324.72
2023-01-10T23:05:58.917Z,101312.50
2023-01-10T23:08:27.477Z,101319.03
2023-01-10T23:10:55.055Z,101310.03
2023-01-10T23:13:23.244Z,101311.72
2023-01-10T23:16:13.089Z,101316.31
2023-01-10T23:18:40.363Z,101327.44
2023-01-10T23:21:07.754Z,101324.75
2023-01-10T23:23:35.641Z,101318.19
2023-01-10T23:26:04.987Z,101315.94
2023-01-10T23:28:36.482Z,101302.66
2023-01-10T23:31:05.471Z,101298.84
2023-01-10T23:33:33.651Z,101313.78
2023-01-10T23:36:01.150Z,101312.94
2023-01-10T23:38:28.696Z,101316.22
2023-01-10T23:40:56.188Z,101298.88
2023-01-10T23:43:24.240Z,101288.31
2023-01-10T23:45:51.457Z,101295.41
2023-01-10T23:48:19.371Z,101317.13
2023-01-10T23:50:48.849Z,101325.00
2023-01-10T23:53:16.201Z,101303.31
2023-01-10T23:55:43.349Z,101303.31
2023-01-10T23:58:10.529Z,101311.97
